sensor_id;sensor_type;location;lat;lon;timestamp;temperature;humidity
57564;DHT22;43400;45.926;6.724;2022-12-29T00:02:19;4.00;86.40
57564;DHT22;43400;45.926;6.724;2022-12-29T00:04:51;4.00;87.00
57564;DHT22;43400;45.926;6.724;2022-12-29T00:07:22;4.00;87.40
57564;DHT22;43400;45.926;6.724;2022-12-29T00:09:54;4.00;87.10
57564;DHT22;43400;45.926;6.724;2022-12-29T00:12:26;3.90;87.70
57564;DHT22;43400;45.926;6.724;2022-12-29T00:14:58;3.90;87.10
57564;DHT22;43400;45.926;6.724;2022-12-29T00:17:29;3.80;87.20
57564;DHT22;43400;45.926;6.724;2022-12-29T00:20:02;3.80;87.30
57564;DHT22;43400;45.926;6.724;2022-12-29T00:22:35;3.80;87.70
57564;DHT22;43400;45.926;6.724;2022-12-29T00:25:11;3.80;87.60
57564;DHT22;43400;45.926;6.724;2022-12-29T00:27:47;3.80;87.40
57564;DHT22;43400;45.926;6.724;2022-12-29T00:30:22;3.70;87.80
57564;DHT22;43400;45.926;6.724;2022-12-29T00:32:54;3.70;88.30
57564;DHT22;43400;45.926;6.724;2022-12-29T00:35:30;3.60;88.80
57564;DHT22;43400;45.926;6.724;2022-12-29T00:38:05;3.50;89.40
57564;DHT22;43400;45.926;6.724;2022-12-29T00:40:40;3.60;88.50
57564;DHT22;43400;45.926;6.724;2022-12-29T00:43:12;3.60;88.50
57564;DHT22;43400;45.926;6.724;2022-12-29T00:45:44;3.60;88.60
57564;DHT22;43400;45.926;6.724;2022-12-29T00:48:17;3.70;88.20
57564;DHT22;43400;45.926;6.724;2022-12-29T00:50:49;3.70;87.80
57564;DHT22;43400;45.926;6.724;2022-12-29T00:53:22;3.90;86.90
57564;DHT22;43400;45.926;6.724;2022-12-29T00:55:55;4.10;85.80
57564;DHT22;43400;45.926;6.724;2022-12-29T00:58:28;4.10;84.70
57564;DHT22;43400;45.926;6.724;2022-12-29T01:01:03;4.20;84.30
57564;DHT22;43400;45.926;6.724;2022-12-29T01:03:36;4.40;84.10
57564;DHT22;43400;45.926;6.724;2022-12-29T01:06:10;4.60;83.00
57564;DHT22;43400;45.926;6.724;2022-12-29T01:08:42;4.60;82.20
57564;DHT22;43400;45.926;6.724;2022-12-29T01:11:14;4.70;82.50
57564;DHT22;43400;45.926;6.724;2022-12-29T01:13:45;4.30;83.80
57564;DHT22;43400;45.926;6.724;2022-12-29T01:16:17;4.10;84.90
57564;DHT22;43400;45.926;6.724;2022-12-29T01:18:49;4.10;85.10
57564;DHT22;43400;45.926;6.724;2022-12-29T01:21:21;3.80;86.50
57564;DHT22;43400;45.926;6.724;2022-12-29T01:23:53;3.70;87.70
57564;DHT22;43400;45.926;6.724;2022-12-29T01:26:26;3.70;88.80
57564;DHT22;43400;45.926;6.724;2022-12-29T01:28:58;3.70;88.90
57564;DHT22;43400;45.926;6.724;2022-12-29T01:31:29;3.70;88.90
57564;DHT22;43400;45.926;6.724;2022-12-29T01:34:01;3.70;88.50
57564;DHT22;43400;45.926;6.724;2022-12-29T01:36:33;3.80;87.10
57564;DHT22;43400;45.926;6.724;2022-12-29T01:39:05;4.00;86.40
57564;DHT22;43400;45.926;6.724;2022-12-29T01:41:37;4.00;85.50
57564;DHT22;43400;45.926;6.724;2022-12-29T01:50:17;4.40;82.50
57564;DHT22;43400;45.926;6.724;2022-12-29T01:53:13;4.40;81.80
57564;DHT22;43400;45.926;6.724;2022-12-29T01:55:51;4.40;82.60
57564;DHT22;43400;45.926;6.724;2022-12-29T01:58:29;4.30;83.70
57564;DHT22;43400;45.926;6.724;2022-12-29T02:01:02;4.00;85.00
57564;DHT22;43400;45.926;6.724;2022-12-29T02:03:34;3.90;84.60
57564;DHT22;43400;45.926;6.724;2022-12-29T02:06:29;4.00;84.10
57564;DHT22;43400;45.926;6.724;2022-12-29T02:09:02;4.20;83.60
57564;DHT22;43400;45.926;6.724;2022-12-29T02:11:35;4.30;83.70
57564;DHT22;43400;45.926;6.724;2022-12-29T02:14:13;4.40;82.70
57564;DHT22;43400;45.926;6.724;2022-12-29T02:19:58;4.40;82.40
57564;DHT22;43400;45.926;6.724;2022-12-29T02:22:39;4.30;84.10
57564;DHT22;43400;45.926;6.724;2022-12-29T02:31:28;4.30;83.50
57564;DHT22;43400;45.926;6.724;2022-12-29T02:37:05;4.30;84.00
57564;DHT22;43400;45.926;6.724;2022-12-29T02:40:01;4.30;85.00
57564;DHT22;43400;45.926;6.724;2022-12-29T02:42:51;4.30;84.90
57564;DHT22;43400;45.926;6.724;2022-12-29T02:45:55;4.40;84.40
57564;DHT22;43400;45.926;6.724;2022-12-29T02:48:51;4.30;84.70
57564;DHT22;43400;45.926;6.724;2022-12-29T02:51:29;4.20;85.70
57564;DHT22;43400;45.926;6.724;2022-12-29T02:54:04;4.10;86.50
57564;DHT22;43400;45.926;6.724;2022-12-29T02:56:35;4.10;85.80
57564;DHT22;43400;45.926;6.724;2022-12-29T02:59:07;4.20;86.00
57564;DHT22;43400;45.926;6.724;2022-12-29T03:13:07;4.40;85.70
57564;DHT22;43400;45.926;6.724;2022-12-29T03:16:10;4.40;85.20
57564;DHT22;43400;45.926;6.724;2022-12-29T03:21:37;4.40;84.20
57564;DHT22;43400;45.926;6.724;2022-12-29T03:24:10;4.70;83.40
57564;DHT22;43400;45.926;6.724;2022-12-29T03:27:17;4.70;83.10
57564;DHT22;43400;45.926;6.724;2022-12-29T03:30:12;4.90;82.80
57564;DHT22;43400;45.926;6.724;2022-12-29T03:33:12;4.90;82.90
57564;DHT22;43400;45.926;6.724;2022-12-29T03:36:47;5.10;80.70
57564;DHT22;43400;45.926;6.724;2022-12-29T03:53:40;5.40;80.40
57564;DHT22;43400;45.926;6.724;2022-12-29T03:56:24;5.30;81.40
57564;DHT22;43400;45.926;6.724;2022-12-29T03:59:08;5.20;81.20
57564;DHT22;43400;45.926;6.724;2022-12-29T04:06:34;5.20;80.70
57564;DHT22;43400;45.926;6.724;2022-12-29T04:09:29;5.20;84.20
57564;DHT22;43400;45.926;6.724;2022-12-29T04:24:01;5.30;81.40
57564;DHT22;43400;45.926;6.724;2022-12-29T04:30:04;5.30;83.00
57564;DHT22;43400;45.926;6.724;2022-12-29T04:33:56;5.10;83.30
57564;DHT22;43400;45.926;6.724;2022-12-29T04:36:23;5.10;84.30
57564;DHT22;43400;45.926;6.724;2022-12-29T04:39:17;5.10;85.20
57564;DHT22;43400;45.926;6.724;2022-12-29T04:41:49;5.10;84.90
57564;DHT22;43400;45.926;6.724;2022-12-29T04:44:23;5.00;85.60
57564;DHT22;43400;45.926;6.724;2022-12-29T04:46:58;5.00;85.50
57564;DHT22;43400;45.926;6.724;2022-12-29T04:49:56;5.10;83.50
57564;DHT22;43400;45.926;6.724;2022-12-29T04:52:42;5.30;82.30
57564;DHT22;43400;45.926;6.724;2022-12-29T04:55:22;5.50;81.30
57564;DHT22;43400;45.926;6.724;2022-12-29T04:58:43;5.50;81.30
57564;DHT22;43400;45.926;6.724;2022-12-29T05:01:40;5.50;82.50
57564;DHT22;43400;45.926;6.724;2022-12-29T05:04:58;5.50;81.40
57564;DHT22;43400;45.926;6.724;2022-12-29T05:07:47;5.50;82.00
57564;DHT22;43400;45.926;6.724;2022-12-29T05:10:29;5.40;82.90
57564;DHT22;43400;45.926;6.724;2022-12-29T05:13:56;5.30;83.70
57564;DHT22;43400;45.926;6.724;2022-12-29T05:17:08;5.30;82.90
57564;DHT22;43400;45.926;6.724;2022-12-29T05:20:23;5.30;82.60
57564;DHT22;43400;45.926;6.724;2022-12-29T05:23:09;5.50;82.20
57564;DHT22;43400;45.926;6.724;2022-12-29T05:25:48;5.40;84.30
57564;DHT22;43400;45.926;6.724;2022-12-29T05:28:39;5.40;83.80
57564;DHT22;43400;45.926;6.724;2022-12-29T05:31:33;5.30;83.80
57564;DHT22;43400;45.926;6.724;2022-12-29T05:34:12;5.50;85.00
57564;DHT22;43400;45.926;6.724;2022-12-29T05:37:30;5.40;85.20
57564;DHT22;43400;45.926;6.724;2022-12-29T05:39:44;5.40;85.10
57564;DHT22;43400;45.926;6.724;2022-12-29T05:42:19;5.60;82.10
57564;DHT22;43400;45.926;6.724;2022-12-29T05:44:54;5.70;82.00
57564;DHT22;43400;45.926;6.724;2022-12-29T05:47:27;5.80;80.70
57564;DHT22;43400;45.926;6.724;2022-12-29T05:49:58;5.90;81.00
57564;DHT22;43400;45.926;6.724;2022-12-29T05:52:39;5.90;80.60
57564;DHT22;43400;45.926;6.724;2022-12-29T05:55:11;5.90;80.30
57564;DHT22;43400;45.926;6.724;2022-12-29T05:57:43;5.90;80.70
57564;DHT22;43400;45.926;6.724;2022-12-29T06:00:15;6.00;79.70
57564;DHT22;43400;45.926;6.724;2022-12-29T06:02:47;6.00;80.10
57564;DHT22;43400;45.926;6.724;2022-12-29T06:05:19;6.00;79.40
57564;DHT22;43400;45.926;6.724;2022-12-29T06:07:51;6.00;81.20
57564;DHT22;43400;45.926;6.724;2022-12-29T06:10:23;6.00;81.30
57564;DHT22;43400;45.926;6.724;2022-12-29T06:12:54;6.10;79.70
57564;DHT22;43400;45.926;6.724;2022-12-29T06:15:26;6.10;80.20
57564;DHT22;43400;45.926;6.724;2022-12-29T06:17:58;6.00;81.50
57564;DHT22;43400;45.926;6.724;2022-12-29T06:20:29;6.10;81.50
57564;DHT22;43400;45.926;6.724;2022-12-29T06:23:01;6.10;78.70
57564;DHT22;43400;45.926;6.724;2022-12-29T06:25:33;6.30;78.30
57564;DHT22;43400;45.926;6.724;2022-12-29T06:28:05;6.30;78.90
57564;DHT22;43400;45.926;6.724;2022-12-29T06:30:36;6.30;79.30
57564;DHT22;43400;45.926;6.724;2022-12-29T06:33:08;6.30;80.00
57564;DHT22;43400;45.926;6.724;2022-12-29T06:35:41;6.30;79.10
57564;DHT22;43400;45.926;6.724;2022-12-29T06:38:13;6.40;77.50
57564;DHT22;43400;45.926;6.724;2022-12-29T06:40:44;6.60;76.80
57564;DHT22;43400;45.926;6.724;2022-12-29T06:43:16;6.80;75.70
57564;DHT22;43400;45.926;6.724;2022-12-29T06:45:48;6.90;75.00
57564;DHT22;43400;45.926;6.724;2022-12-29T06:48:19;6.90;76.60
57564;DHT22;43400;45.926;6.724;2022-12-29T06:50:51;6.90;75.70
57564;DHT22;43400;45.926;6.724;2022-12-29T06:53:29;7.00;73.80
57564;DHT22;43400;45.926;6.724;2022-12-29T06:56:15;7.00;74.10
57564;DHT22;43400;45.926;6.724;2022-12-29T06:58:47;7.00;74.40
57564;DHT22;43400;45.926;6.724;2022-12-29T07:05:12;7.00;75.00
57564;DHT22;43400;45.926;6.724;2022-12-29T07:12:31;7.00;75.70
57564;DHT22;43400;45.926;6.724;2022-12-29T07:16:08;7.00;74.70
57564;DHT22;43400;45.926;6.724;2022-12-29T07:19:41;7.20;74.30
57564;DHT22;43400;45.926;6.724;2022-12-29T07:34:40;7.20;75.70
57564;DHT22;43400;45.926;6.724;2022-12-29T08:21:03;7.20;81.00
57564;DHT22;43400;45.926;6.724;2022-12-29T08:39:51;8.70;76.60
57564;DHT22;43400;45.926;6.724;2022-12-29T08:42:37;8.70;76.50
57564;DHT22;43400;45.926;6.724;2022-12-29T08:45:09;8.90;77.00
57564;DHT22;43400;45.926;6.724;2022-12-29T08:47:41;8.80;77.00
57564;DHT22;43400;45.926;6.724;2022-12-29T08:50:13;8.90;78.30
57564;DHT22;43400;45.926;6.724;2022-12-29T08:52:45;8.80;78.60
57564;DHT22;43400;45.926;6.724;2022-12-29T08:55:16;8.70;79.90
57564;DHT22;43400;45.926;6.724;2022-12-29T08:57:48;8.80;79.60
57564;DHT22;43400;45.926;6.724;2022-12-29T09:00:20;8.80;79.80
57564;DHT22;43400;45.926;6.724;2022-12-29T09:02:51;8.80;79.60
57564;DHT22;43400;45.926;6.724;2022-12-29T09:05:24;8.90;80.80
57564;DHT22;43400;45.926;6.724;2022-12-29T09:07:55;8.90;81.30
57564;DHT22;43400;45.926;6.724;2022-12-29T09:10:27;8.80;81.80
57564;DHT22;43400;45.926;6.724;2022-12-29T09:12:59;8.80;83.20
57564;DHT22;43400;45.926;6.724;2022-12-29T09:15:30;8.70;83.60
57564;DHT22;43400;45.926;6.724;2022-12-29T09:18:02;8.80;82.60
57564;DHT22;43400;45.926;6.724;2022-12-29T09:20:34;9.00;82.30
57564;DHT22;43400;45.926;6.724;2022-12-29T09:23:06;9.10;82.20
57564;DHT22;43400;45.926;6.724;2022-12-29T09:25:39;9.20;81.30
57564;DHT22;43400;45.926;6.724;2022-12-29T09:28:10;9.30;80.60
57564;DHT22;43400;45.926;6.724;2022-12-29T09:30:42;9.40;80.30
57564;DHT22;43400;45.926;6.724;2022-12-29T09:33:14;9.30;80.80
57564;DHT22;43400;45.926;6.724;2022-12-29T09:35:54;9.30;80.70
57564;DHT22;43400;45.926;6.724;2022-12-29T09:38:26;9.30;78.90
57564;DHT22;43400;45.926;6.724;2022-12-29T09:41:01;9.40;78.10
57564;DHT22;43400;45.926;6.724;2022-12-29T09:44:12;9.50;77.70
57564;DHT22;43400;45.926;6.724;2022-12-29T09:46:47;9.50;78.80
57564;DHT22;43400;45.926;6.724;2022-12-29T09:49:42;9.50;81.00
57564;DHT22;43400;45.926;6.724;2022-12-29T09:52:50;9.40;82.20
57564;DHT22;43400;45.926;6.724;2022-12-29T09:55:38;9.40;83.20
57564;DHT22;43400;45.926;6.724;2022-12-29T09:58:14;9.50;83.60
57564;DHT22;43400;45.926;6.724;2022-12-29T10:00:58;9.60;82.70
57564;DHT22;43400;45.926;6.724;2022-12-29T10:03:52;9.70;83.40
57564;DHT22;43400;45.926;6.724;2022-12-29T10:20:54;9.70;82.80
57564;DHT22;43400;45.926;6.724;2022-12-29T10:23:42;9.70;81.60
57564;DHT22;43400;45.926;6.724;2022-12-29T10:26:20;9.70;82.50
57564;DHT22;43400;45.926;6.724;2022-12-29T10:29:05;9.80;82.10
57564;DHT22;43400;45.926;6.724;2022-12-29T10:31:44;9.90;81.50
57564;DHT22;43400;45.926;6.724;2022-12-29T10:34:24;10.20;81.20
57564;DHT22;43400;45.926;6.724;2022-12-29T10:37:14;10.30;81.20
57564;DHT22;43400;45.926;6.724;2022-12-29T10:39:51;10.40;82.50
57564;DHT22;43400;45.926;6.724;2022-12-29T10:42:29;10.60;80.30
57564;DHT22;43400;45.926;6.724;2022-12-29T10:45:05;10.90;80.10
57564;DHT22;43400;45.926;6.724;2022-12-29T10:47:42;10.90;79.30
57564;DHT22;43400;45.926;6.724;2022-12-29T10:50:19;10.90;79.60
57564;DHT22;43400;45.926;6.724;2022-12-29T10:52:51;10.90;81.40
57564;DHT22;43400;45.926;6.724;2022-12-29T10:55:30;10.80;80.80
57564;DHT22;43400;45.926;6.724;2022-12-29T10:58:11;10.80;79.00
57564;DHT22;43400;45.926;6.724;2022-12-29T11:00:50;10.80;77.80
57564;DHT22;43400;45.926;6.724;2022-12-29T11:03:53;10.90;78.10
57564;DHT22;43400;45.926;6.724;2022-12-29T11:06:28;11.10;79.30
57564;DHT22;43400;45.926;6.724;2022-12-29T11:09:14;11.40;79.00
57564;DHT22;43400;45.926;6.724;2022-12-29T11:11:46;12.90;75.70
57564;DHT22;43400;45.926;6.724;2022-12-29T11:14:21;15.60;66.90
57564;DHT22;43400;45.926;6.724;2022-12-29T11:16:59;17.10;60.00
57564;DHT22;43400;45.926;6.724;2022-12-29T11:19:32;17.40;57.40
57564;DHT22;43400;45.926;6.724;2022-12-29T11:22:24;17.80;58.10
57564;DHT22;43400;45.926;6.724;2022-12-29T11:25:06;19.20;54.10
57564;DHT22;43400;45.926;6.724;2022-12-29T11:27:55;20.70;48.40
57564;DHT22;43400;45.926;6.724;2022-12-29T11:30:31;22.00;45.40
57564;DHT22;43400;45.926;6.724;2022-12-29T11:33:03;22.80;44.40
57564;DHT22;43400;45.926;6.724;2022-12-29T11:35:39;22.40;41.90
57564;DHT22;43400;45.926;6.724;2022-12-29T11:38:20;22.20;43.60
57564;DHT22;43400;45.926;6.724;2022-12-29T11:40:53;23.00;43.00
57564;DHT22;43400;45.926;6.724;2022-12-29T11:43:36;23.40;43.30
57564;DHT22;43400;45.926;6.724;2022-12-29T11:46:16;23.50;43.00
57564;DHT22;43400;45.926;6.724;2022-12-29T11:48:49;23.90;41.60
57564;DHT22;43400;45.926;6.724;2022-12-29T11:51:27;24.50;41.10
57564;DHT22;43400;45.926;6.724;2022-12-29T11:54:02;24.10;40.30
57564;DHT22;43400;45.926;6.724;2022-12-29T11:56:38;23.00;40.90
57564;DHT22;43400;45.926;6.724;2022-12-29T12:02:11;19.80;45.40
57564;DHT22;43400;45.926;6.724;2022-12-29T12:04:50;19.00;48.00
57564;DHT22;43400;45.926;6.724;2022-12-29T12:07:39;20.40;47.30
57564;DHT22;43400;45.926;6.724;2022-12-29T12:10:33;21.70;45.90
57564;DHT22;43400;45.926;6.724;2022-12-29T12:13:19;22.20;43.10
57564;DHT22;43400;45.926;6.724;2022-12-29T12:15:59;21.90;42.80
57564;DHT22;43400;45.926;6.724;2022-12-29T12:18:45;21.60;42.60
57564;DHT22;43400;45.926;6.724;2022-12-29T12:21:30;21.70;43.30
57564;DHT22;43400;45.926;6.724;2022-12-29T12:29:39;23.00;41.60
57564;DHT22;43400;45.926;6.724;2022-12-29T12:44:01;22.70;39.40
57564;DHT22;43400;45.926;6.724;2022-12-29T12:53:15;18.70;46.80
57564;DHT22;43400;45.926;6.724;2022-12-29T12:58:44;18.90;49.60
57564;DHT22;43400;45.926;6.724;2022-12-29T13:22:18;14.90;56.30
57564;DHT22;43400;45.926;6.724;2022-12-29T13:24:50;14.70;57.00
57564;DHT22;43400;45.926;6.724;2022-12-29T13:27:48;14.70;57.20
57564;DHT22;43400;45.926;6.724;2022-12-29T13:30:26;14.70;57.90
57564;DHT22;43400;45.926;6.724;2022-12-29T13:33:27;14.70;58.10
57564;DHT22;43400;45.926;6.724;2022-12-29T13:36:23;14.90;59.70
57564;DHT22;43400;45.926;6.724;2022-12-29T13:41:54;15.10;58.10
57564;DHT22;43400;45.926;6.724;2022-12-29T13:50:04;14.50;58.50
57564;DHT22;43400;45.926;6.724;2022-12-29T13:52:42;14.10;59.30
57564;DHT22;43400;45.926;6.724;2022-12-29T13:55:45;13.90;60.50
57564;DHT22;43400;45.926;6.724;2022-12-29T14:03:59;13.60;63.80
57564;DHT22;43400;45.926;6.724;2022-12-29T14:06:35;13.40;64.40
57564;DHT22;43400;45.926;6.724;2022-12-29T14:09:47;13.30;62.10
57564;DHT22;43400;45.926;6.724;2022-12-29T14:12:40;13.20;63.40
57564;DHT22;43400;45.926;6.724;2022-12-29T14:17:45;13.20;66.00
57564;DHT22;43400;45.926;6.724;2022-12-29T14:20:31;13.20;66.50
57564;DHT22;43400;45.926;6.724;2022-12-29T14:28:46;13.00;63.70
57564;DHT22;43400;45.926;6.724;2022-12-29T14:37:01;12.90;67.90
57564;DHT22;43400;45.926;6.724;2022-12-29T14:39:44;12.90;66.60
57564;DHT22;43400;45.926;6.724;2022-12-29T14:42:20;13.00;67.20
57564;DHT22;43400;45.926;6.724;2022-12-29T14:47:50;12.80;66.90
57564;DHT22;43400;45.926;6.724;2022-12-29T14:50:38;12.70;68.00
57564;DHT22;43400;45.926;6.724;2022-12-29T14:56:17;12.40;68.70
57564;DHT22;43400;45.926;6.724;2022-12-29T14:58:57;12.20;69.70
57564;DHT22;43400;45.926;6.724;2022-12-29T15:04:17;11.90;69.70
57564;DHT22;43400;45.926;6.724;2022-12-29T15:06:50;11.90;70.70
57564;DHT22;43400;45.926;6.724;2022-12-29T15:14:56;11.70;70.40
57564;DHT22;43400;45.926;6.724;2022-12-29T15:17:32;11.70;71.00
57564;DHT22;43400;45.926;6.724;2022-12-29T15:20:28;11.60;71.70
57564;DHT22;43400;45.926;6.724;2022-12-29T15:23:10;11.50;72.50
57564;DHT22;43400;45.926;6.724;2022-12-29T15:26:06;11.40;72.70
57564;DHT22;43400;45.926;6.724;2022-12-29T15:28:45;11.40;73.10
57564;DHT22;43400;45.926;6.724;2022-12-29T15:31:22;11.30;73.40
57564;DHT22;43400;45.926;6.724;2022-12-29T15:34:01;11.20;73.70
57564;DHT22;43400;45.926;6.724;2022-12-29T15:36:38;11.20;74.10
57564;DHT22;43400;45.926;6.724;2022-12-29T15:39:27;11.10;74.00
57564;DHT22;43400;45.926;6.724;2022-12-29T15:45:04;11.00;72.70
57564;DHT22;43400;45.926;6.724;2022-12-29T15:47:36;11.00;72.50
57564;DHT22;43400;45.926;6.724;2022-12-29T15:52:46;10.80;74.80
57564;DHT22;43400;45.926;6.724;2022-12-29T15:55:38;10.70;74.20
57564;DHT22;43400;45.926;6.724;2022-12-29T15:58:30;10.70;75.40
57564;DHT22;43400;45.926;6.724;2022-12-29T16:01:02;10.60;75.10
57564;DHT22;43400;45.926;6.724;2022-12-29T16:03:36;10.70;74.40
57564;DHT22;43400;45.926;6.724;2022-12-29T16:06:10;10.70;74.60
57564;DHT22;43400;45.926;6.724;2022-12-29T16:09:06;10.70;74.60
57564;DHT22;43400;45.926;6.724;2022-12-29T16:11:39;10.70;73.70
57564;DHT22;43400;45.926;6.724;2022-12-29T16:17:03;10.70;74.30
57564;DHT22;43400;45.926;6.724;2022-12-29T16:19:41;10.50;75.50
57564;DHT22;43400;45.926;6.724;2022-12-29T16:22:26;10.50;76.60
57564;DHT22;43400;45.926;6.724;2022-12-29T16:25:01;10.40;77.10
57564;DHT22;43400;45.926;6.724;2022-12-29T16:27:36;10.30;77.40
57564;DHT22;43400;45.926;6.724;2022-12-29T16:30:21;10.30;77.80
57564;DHT22;43400;45.926;6.724;2022-12-29T16:32:58;10.20;78.60
57564;DHT22;43400;45.926;6.724;2022-12-29T16:35:59;10.10;78.70
57564;DHT22;43400;45.926;6.724;2022-12-29T16:38:33;10.10;77.60
57564;DHT22;43400;45.926;6.724;2022-12-29T16:41:05;10.10;79.10
57564;DHT22;43400;45.926;6.724;2022-12-29T16:43:37;10.10;80.80
57564;DHT22;43400;45.926;6.724;2022-12-29T16:46:18;10.00;80.50
57564;DHT22;43400;45.926;6.724;2022-12-29T16:48:56;10.00;81.50
57564;DHT22;43400;45.926;6.724;2022-12-29T16:51:33;9.90;81.90
57564;DHT22;43400;45.926;6.724;2022-12-29T16:54:06;9.90;80.00
57564;DHT22;43400;45.926;6.724;2022-12-29T16:56:45;9.90;76.00
57564;DHT22;43400;45.926;6.724;2022-12-29T16:59:33;10.50;73.10
57564;DHT22;43400;45.926;6.724;2022-12-29T17:02:14;10.50;74.70
57564;DHT22;43400;45.926;6.724;2022-12-29T17:04:46;10.40;75.80
57564;DHT22;43400;45.926;6.724;2022-12-29T17:07:23;10.30;74.60
57564;DHT22;43400;45.926;6.724;2022-12-29T17:09:55;10.40;75.90
57564;DHT22;43400;45.926;6.724;2022-12-29T17:12:29;10.30;77.10
57564;DHT22;43400;45.926;6.724;2022-12-29T17:15:06;10.30;75.50
57564;DHT22;43400;45.926;6.724;2022-12-29T17:17:49;10.30;74.50
57564;DHT22;43400;45.926;6.724;2022-12-29T17:20:25;10.40;73.80
57564;DHT22;43400;45.926;6.724;2022-12-29T17:22:58;10.50;73.40
57564;DHT22;43400;45.926;6.724;2022-12-29T17:25:35;10.60;72.30
57564;DHT22;43400;45.926;6.724;2022-12-29T17:30:39;10.60;73.50
57564;DHT22;43400;45.926;6.724;2022-12-29T17:33:14;10.70;72.40
57564;DHT22;43400;45.926;6.724;2022-12-29T17:35:47;10.70;73.10
57564;DHT22;43400;45.926;6.724;2022-12-29T17:38:24;10.70;72.90
57564;DHT22;43400;45.926;6.724;2022-12-29T17:40:58;10.60;74.70
57564;DHT22;43400;45.926;6.724;2022-12-29T17:43:30;10.60;74.30
57564;DHT22;43400;45.926;6.724;2022-12-29T17:46:01;10.60;75.60
57564;DHT22;43400;45.926;6.724;2022-12-29T17:48:33;10.60;76.20
57564;DHT22;43400;45.926;6.724;2022-12-29T17:51:05;10.50;77.20
57564;DHT22;43400;45.926;6.724;2022-12-29T17:53:36;10.40;76.50
57564;DHT22;43400;45.926;6.724;2022-12-29T17:56:08;10.60;75.60
57564;DHT22;43400;45.926;6.724;2022-12-29T17:58:40;10.80;75.10
57564;DHT22;43400;45.926;6.724;2022-12-29T18:01:12;10.80;75.50
57564;DHT22;43400;45.926;6.724;2022-12-29T18:03:43;10.80;76.00
57564;DHT22;43400;45.926;6.724;2022-12-29T18:06:15;10.70;76.40
57564;DHT22;43400;45.926;6.724;2022-12-29T18:08:47;10.70;75.70
57564;DHT22;43400;45.926;6.724;2022-12-29T18:11:24;10.70;77.10
57564;DHT22;43400;45.926;6.724;2022-12-29T18:13:56;10.60;80.30
57564;DHT22;43400;45.926;6.724;2022-12-29T18:16:28;10.30;83.00
57564;DHT22;43400;45.926;6.724;2022-12-29T18:19:00;10.10;85.10
57564;DHT22;43400;45.926;6.724;2022-12-29T18:21:32;10.10;85.50
57564;DHT22;43400;45.926;6.724;2022-12-29T18:24:03;10.00;85.40
57564;DHT22;43400;45.926;6.724;2022-12-29T18:26:35;10.00;86.20
57564;DHT22;43400;45.926;6.724;2022-12-29T18:29:07;10.10;82.40
57564;DHT22;43400;45.926;6.724;2022-12-29T18:31:38;10.10;83.00
57564;DHT22;43400;45.926;6.724;2022-12-29T18:34:14;10.10;85.30
57564;DHT22;43400;45.926;6.724;2022-12-29T18:36:46;10.00;86.70
57564;DHT22;43400;45.926;6.724;2022-12-29T18:39:17;9.80;89.30
57564;DHT22;43400;45.926;6.724;2022-12-29T18:41:52;9.70;90.10
57564;DHT22;43400;45.926;6.724;2022-12-29T18:44:24;9.60;90.40
57564;DHT22;43400;45.926;6.724;2022-12-29T18:46:55;9.60;90.80
57564;DHT22;43400;45.926;6.724;2022-12-29T18:49:27;9.50;91.40
57564;DHT22;43400;45.926;6.724;2022-12-29T18:51:59;9.40;92.10
57564;DHT22;43400;45.926;6.724;2022-12-29T18:54:32;9.40;92.30
57564;DHT22;43400;45.926;6.724;2022-12-29T18:57:04;9.40;92.80
57564;DHT22;43400;45.926;6.724;2022-12-29T18:59:36;9.30;93.20
57564;DHT22;43400;45.926;6.724;2022-12-29T19:02:15;9.30;93.40
57564;DHT22;43400;45.926;6.724;2022-12-29T19:05:01;9.30;93.20
57564;DHT22;43400;45.926;6.724;2022-12-29T19:07:33;9.30;93.60
57564;DHT22;43400;45.926;6.724;2022-12-29T19:10:05;9.20;93.70
57564;DHT22;43400;45.926;6.724;2022-12-29T19:12:37;9.30;93.40
57564;DHT22;43400;45.926;6.724;2022-12-29T19:15:23;9.40;93.40
57564;DHT22;43400;45.926;6.724;2022-12-29T19:17:58;9.40;93.50
57564;DHT22;43400;45.926;6.724;2022-12-29T19:20:40;9.30;93.90
57564;DHT22;43400;45.926;6.724;2022-12-29T19:23:14;9.30;94.10
57564;DHT22;43400;45.926;6.724;2022-12-29T19:25:46;9.20;94.70
57564;DHT22;43400;45.926;6.724;2022-12-29T19:28:27;9.00;95.80
57564;DHT22;43400;45.926;6.724;2022-12-29T19:31:01;8.90;97.20
57564;DHT22;43400;45.926;6.724;2022-12-29T19:33:32;8.90;98.20
57564;DHT22;43400;45.926;6.724;2022-12-29T19:36:04;9.00;98.00
57564;DHT22;43400;45.926;6.724;2022-12-29T19:38:36;9.00;98.10
57564;DHT22;43400;45.926;6.724;2022-12-29T19:41:08;9.00;98.50
57564;DHT22;43400;45.926;6.724;2022-12-29T19:43:39;9.00;98.80
57564;DHT22;43400;45.926;6.724;2022-12-29T19:46:16;8.90;99.50
57564;DHT22;43400;45.926;6.724;2022-12-29T19:48:48;8.70;99.90
57564;DHT22;43400;45.926;6.724;2022-12-29T19:51:19;8.80;99.90
57564;DHT22;43400;45.926;6.724;2022-12-29T19:53:53;8.70;99.90
57564;DHT22;43400;45.926;6.724;2022-12-29T19:56:24;8.60;99.90
57564;DHT22;43400;45.926;6.724;2022-12-29T19:58:56;8.70;99.90
57564;DHT22;43400;45.926;6.724;2022-12-29T20:01:28;8.70;99.90
57564;DHT22;43400;45.926;6.724;2022-12-29T20:03:59;8.70;99.90
57564;DHT22;43400;45.926;6.724;2022-12-29T20:06:31;8.60;99.90
57564;DHT22;43400;45.926;6.724;2022-12-29T20:09:02;8.60;99.90
57564;DHT22;43400;45.926;6.724;2022-12-29T20:11:34;8.50;99.90
57564;DHT22;43400;45.926;6.724;2022-12-29T20:14:06;8.60;99.90
57564;DHT22;43400;45.926;6.724;2022-12-29T20:16:37;8.50;99.90
57564;DHT22;43400;45.926;6.724;2022-12-29T20:19:09;8.50;99.90
57564;DHT22;43400;45.926;6.724;2022-12-29T20:21:40;8.50;99.90
57564;DHT22;43400;45.926;6.724;2022-12-29T20:24:12;8.40;99.90
57564;DHT22;43400;45.926;6.724;2022-12-29T20:26:44;8.40;99.90
57564;DHT22;43400;45.926;6.724;2022-12-29T20:29:16;8.50;99.90
57564;DHT22;43400;45.926;6.724;2022-12-29T20:31:48;8.50;99.90
57564;DHT22;43400;45.926;6.724;2022-12-29T20:34:20;8.40;99.90
57564;DHT22;43400;45.926;6.724;2022-12-29T20:36:51;8.40;99.90
57564;DHT22;43400;45.926;6.724;2022-12-29T20:39:23;8.40;99.90
57564;DHT22;43400;45.926;6.724;2022-12-29T20:41:54;8.40;99.90
57564;DHT22;43400;45.926;6.724;2022-12-29T20:44:27;8.50;99.90
57564;DHT22;43400;45.926;6.724;2022-12-29T20:47:00;8.50;99.90
57564;DHT22;43400;45.926;6.724;2022-12-29T20:49:32;8.40;99.90
57564;DHT22;43400;45.926;6.724;2022-12-29T20:52:04;8.40;99.90
57564;DHT22;43400;45.926;6.724;2022-12-29T20:54:36;8.50;99.90
57564;DHT22;43400;45.926;6.724;2022-12-29T20:57:07;8.40;99.90
57564;DHT22;43400;45.926;6.724;2022-12-29T20:59:39;8.40;99.90
57564;DHT22;43400;45.926;6.724;2022-12-29T21:02:19;8.30;99.90
57564;DHT22;43400;45.926;6.724;2022-12-29T21:04:51;8.30;99.90
57564;DHT22;43400;45.926;6.724;2022-12-29T21:07:22;8.20;99.90
57564;DHT22;43400;45.926;6.724;2022-12-29T21:09:54;8.20;99.90
57564;DHT22;43400;45.926;6.724;2022-12-29T21:12:26;8.10;99.90
57564;DHT22;43400;45.926;6.724;2022-12-29T21:14:58;8.10;99.90
57564;DHT22;43400;45.926;6.724;2022-12-29T21:17:29;8.20;99.90